Time;durP1;ratioP1;P1;durP2;ratioP2;P2;SDS_P1;SDS_P2;PMS_P1;PMS_P2;Temp;Humidity;BMP_temperature;BMP_pressure;BME280_temperature;BME280_humidity;BME280_pressure;Samples;Min_cycle;Max_cycle;Signal;HPM_P1;HPM_P2
2023/10/10 00:00:27;;;;;;;;;;;;;;;16.06;65.83;98452.69;5050171;28;20305;-62
2023/10/10 00:03:17;;;;;;;;;;;;;;;16.05;65.66;98445.63;5065397;28;20383;-64
2023/10/10 00:06:08;;;;;;;;;;;;;;;16.04;65.74;98450.28;5099308;28;20069;-63
2023/10/10 00:08:57;;;;;;;;;;;;;;;15.99;65.97;98450.50;5099766;28;19958;-64
2023/10/10 00:11:45;;;;;;;;;;;;;;;15.98;65.86;98454.38;5103506;28;20024;-64
2023/10/10 00:14:36;;;;;;;;;;;;;;;15.96;66.03;98445.66;5108021;28;20307;-63
2023/10/10 00:17:34;;;;;;;;;;;;;;;15.96;65.83;98449.19;5108671;28;19934;-63
2023/10/10 00:20:24;;;;;;;;;;;;;;;15.93;65.98;98444.41;5097272;28;20016;-63
2023/10/10 00:23:16;;;;;;;;;;;;;;;15.90;66.40;98447.00;5090739;28;20105;-63
2023/10/10 00:26:05;;;;;;;;;;;;;;;15.90;66.70;98447.00;5103342;28;20008;-63
2023/10/10 00:28:56;;;;;;;;;;;;;;;15.87;66.90;98447.66;5098954;28;19924;-63
2023/10/10 00:31:54;;;;;;;;;;;;;;;15.79;67.72;98454.81;5108512;28;19933;-63
2023/10/10 00:34:47;;;;;;;;;;;;;;;15.77;67.79;98456.28;5101126;28;19931;-63
2023/10/10 00:37:35;;;;;;;;;;;;;;;15.75;68.20;98453.06;5107557;28;19935;-63
2023/10/10 00:40:29;;;;;;;;;;;;;;;15.68;68.45;98454.38;5089170;28;20296;-63
2023/10/10 00:43:22;;;;;;;;;;;;;;;15.71;68.32;98459.22;5103744;28;19924;-63
2023/10/10 00:46:11;;;;;;;;;;;;;;;15.69;68.23;98450.50;5102549;28;19924;-63
2023/10/10 00:49:01;;;;;;;;;;;;;;;15.77;68.05;98453.56;5107362;28;19985;-63
2023/10/10 00:51:50;;;;;;;;;;;;;;;15.78;68.15;98461.44;5099974;28;19981;-63
2023/10/10 00:54:43;;;;;;;;;;;;;;;15.72;68.76;98457.28;5116843;28;20448;-63
2023/10/10 00:57:35;;;;;;;;;;;;;;;15.69;68.59;98469.69;5098206;28;19924;-63
2023/10/10 01:00:29;;;;;;;;;;;;;;;15.62;68.82;98461.16;5116325;28;19934;-62
2023/10/10 01:03:21;;;;;;;;;;;;;;;15.62;68.71;98463.91;5112181;28;19945;-62
2023/10/10 01:06:13;;;;;;;;;;;;;;;15.62;68.62;98463.91;5104918;28;19923;-63
2023/10/10 01:09:20;;;;;;;;;;;;;;;15.60;68.60;98457.94;5105966;27;20006;-62
2023/10/10 01:12:09;;;;;;;;;;;;;;;15.60;68.54;98460.69;5113474;27;19930;-63
2023/10/10 01:15:00;;;;;;;;;;;;;;;15.57;68.45;98458.63;5093291;28;20006;-63
2023/10/10 01:17:48;;;;;;;;;;;;;;;15.57;68.15;98458.63;5105903;27;20014;-63
2023/10/10 01:20:45;;;;;;;;;;;;;;;15.52;68.12;98447.84;5093483;28;19924;-63
2023/10/10 01:23:33;;;;;;;;;;;;;;;15.46;68.17;98454.66;5103460;27;20719;-63
2023/10/10 01:26:28;;;;;;;;;;;;;;;15.44;68.04;98448.69;5121574;27;20022;-62
2023/10/10 01:29:25;;;;;;;;;;;;;;;15.43;68.14;98452.56;5111039;27;20006;-64
2023/10/10 01:32:13;;;;;;;;;;;;;;;15.40;67.94;98454.03;5102466;27;19968;-63
2023/10/10 01:35:02;;;;;;;;;;;;;;;15.30;68.28;98448.13;5130461;27;20014;-63
2023/10/10 01:37:54;;;;;;;;;;;;;;;15.19;68.76;98458.63;5109172;27;19924;-63
2023/10/10 01:40:43;;;;;;;;;;;;;;;15.13;69.01;98455.28;5110406;28;19924;-63
2023/10/10 01:43:32;;;;;;;;;;;;;;;15.11;68.96;98454.78;5096537;27;20008;-63
2023/10/10 01:46:27;;;;;;;;;;;;;;;14.99;69.18;98459.34;5111009;27;19969;-62
2023/10/10 01:49:25;;;;;;;;;;;;;;;15.01;69.22;98446.13;5109455;27;20005;-63
2023/10/10 01:52:17;;;;;;;;;;;;;;;15.05;69.08;98436.94;5117973;27;20059;-64
2023/10/10 01:55:10;;;;;;;;;;;;;;;15.06;68.90;98437.75;5105706;28;19938;-63
2023/10/10 01:58:01;;;;;;;;;;;;;;;15.08;68.79;98436.31;5092798;28;19931;-63
2023/10/10 02:00:51;;;;;;;;;;;;;;;15.11;68.70;98446.56;5098396;27;20368;-62
2023/10/10 02:03:42;;;;;;;;;;;;;;;15.11;68.70;98445.78;5103969;28;20250;-63
2023/10/10 02:06:34;;;;;;;;;;;;;;;15.09;68.73;98432.44;5071575;28;20004;-62
2023/10/10 02:09:27;;;;;;;;;;;;;;;15.10;68.72;98436.75;5091608;28;20289;-63
2023/10/10 02:12:19;;;;;;;;;;;;;;;15.09;68.58;98426.97;5110735;27;19977;-65
2023/10/10 02:15:11;;;;;;;;;;;;;;;14.99;68.95;98432.00;5074703;28;19973;-63
2023/10/10 02:18:04;;;;;;;;;;;;;;;14.97;69.01;98426.84;5082720;28;19925;-64
2023/10/10 02:20:53;;;;;;;;;;;;;;;15.00;69.02;98433.59;5088636;28;19928;-63
2023/10/10 02:23:44;;;;;;;;;;;;;;;15.01;68.66;98435.19;5088432;28;20366;-62
2023/10/10 02:26:36;;;;;;;;;;;;;;;15.00;68.60;98437.13;5096284;28;19927;-64
2023/10/10 02:29:34;;;;;;;;;;;;;;;14.97;68.71;98446.00;5093586;28;19928;-63
2023/10/10 02:32:23;;;;;;;;;;;;;;;14.84;68.72;98444.25;5074340;28;19924;-62
2023/10/10 02:35:25;;;;;;;;;;;;;;;14.77;68.91;98441.22;5089137;28;19932;-63
2023/10/10 02:38:16;;;;;;;;;;;;;;;14.72;69.07;98450.41;5083942;28;20421;-63
2023/10/10 02:41:24;;;;;;;;;;;;;;;14.70;69.46;98447.19;5082494;28;19932;-63
2023/10/10 02:44:26;;;;;;;;;;;;;;;14.63;69.45;98457.81;5084179;28;19932;-63
2023/10/10 02:47:30;;;;;;;;;;;;;;;14.59;69.57;98448.66;5084653;28;19987;-62
2023/10/10 02:50:39;;;;;;;;;;;;;;;14.62;69.30;98451.53;5114020;27;20284;-63
2023/10/10 02:53:32;;;;;;;;;;;;;;;14.55;69.71;98456.72;5084877;28;19924;-63
2023/10/10 02:56:20;;;;;;;;;;;;;;;14.51;69.51;98453.00;5081315;28;19932;-63
2023/10/10 02:59:09;;;;;;;;;;;;;;;14.54;69.51;98448.81;5085223;28;19931;-63
2023/10/10 03:01:59;;;;;;;;;;;;;;;14.57;69.38;98454.44;5099690;28;19969;-63
2023/10/10 03:05:06;;;;;;;;;;;;;;;14.50;69.74;98456.88;5110999;27;20339;-63
2023/10/10 03:07:54;;;;;;;;;;;;;;;14.46;69.66;98457.81;5088929;28;19984;-63
2023/10/10 03:10:45;;;;;;;;;;;;;;;14.30;69.98;98454.78;5074735;28;19966;-63
2023/10/10 03:13:36;;;;;;;;;;;;;;;14.25;70.33;98463.13;5088267;28;19924;-63
2023/10/10 03:16:44;;;;;;;;;;;;;;;14.20;70.21;98455.88;5093503;28;20034;-63
2023/10/10 03:19:41;;;;;;;;;;;;;;;14.15;70.12;98443.19;5073868;28;20133;-64
2023/10/10 03:22:52;;;;;;;;;;;;;;;14.16;70.25;98453.00;5121015;27;19932;-63
2023/10/10 03:25:45;;;;;;;;;;;;;;;14.19;70.25;98464.41;5087020;28;19924;-62
2023/10/10 03:28:41;;;;;;;;;;;;;;;14.24;69.88;98459.59;5124828;27;19928;-62
2023/10/10 03:31:35;;;;;;;;;;;;;;;14.28;69.76;98459.75;5115321;27;19927;-62
2023/10/10 03:34:42;;;;;;;;;;;;;;;14.28;69.44;98468.75;5074541;28;19924;-63
2023/10/10 03:37:40;;;;;;;;;;;;;;;14.30;69.33;98471.16;5088229;28;19951;-63
2023/10/10 03:41:04;;;;;;;;;;;;;;;14.28;69.39;98465.22;5094709;28;19989;-65
2023/10/10 05:23:33;;;;;;;;;;;;;;;13.95;69.25;98460.22;5107655;27;20384;-62
2023/10/10 05:26:22;;;;;;;;;;;;;;;13.91;69.17;98459.25;5095250;28;19988;-64
2023/10/10 05:29:12;;;;;;;;;;;;;;;13.93;69.15;98465.19;5116606;27;20388;-62
2023/10/10 05:32:05;;;;;;;;;;;;;;;13.93;68.89;98472.59;5101791;27;19976;-64
2023/10/10 05:34:58;;;;;;;;;;;;;;;13.81;69.01;98465.81;5106582;27;19928;-63
2023/10/10 05:37:47;;;;;;;;;;;;;;;13.84;68.96;98470.63;5103510;27;19931;-64
2023/10/10 05:40:38;;;;;;;;;;;;;;;13.71;69.40;98476.25;5109252;27;20305;-62
2023/10/10 05:43:33;;;;;;;;;;;;;;;13.70;69.44;98480.09;5108001;27;19974;-62
2023/10/10 05:46:21;;;;;;;;;;;;;;;13.62;69.57;98477.03;5107447;28;20395;-62
2023/10/10 05:49:10;;;;;;;;;;;;;;;13.70;69.44;98482.84;5116062;27;20403;-63
2023/10/10 05:51:58;;;;;;;;;;;;;;;13.69;69.42;98478.47;5107476;28;19923;-63
2023/10/10 05:54:47;;;;;;;;;;;;;;;13.53;69.42;98487.13;5104421;28;19923;-63
2023/10/10 05:57:36;;;;;;;;;;;;;;;13.57;69.41;98485.34;5108221;27;19990;-62
2023/10/10 06:00:27;;;;;;;;;;;;;;;13.51;69.54;98489.34;5109889;28;19924;-62
2023/10/10 06:03:16;;;;;;;;;;;;;;;13.57;69.32;98488.09;5107409;27;19931;-63
2023/10/10 06:06:04;;;;;;;;;;;;;;;13.51;69.63;98494.81;5101452;28;19934;-62
2023/10/10 06:09:00;;;;;;;;;;;;;;;13.47;69.79;98501.22;5111695;28;20007;-64
2023/10/10 06:11:49;;;;;;;;;;;;;;;13.46;69.79;98492.22;5099230;27;19934;-63
2023/10/10 06:14:37;;;;;;;;;;;;;;;13.49;69.79;98491.59;5107644;28;20459;-63
2023/10/10 06:17:30;;;;;;;;;;;;;;;13.53;69.83;98500.78;5095784;28;20340;-63
2023/10/10 06:20:21;;;;;;;;;;;;;;;13.58;69.73;98506.09;5100863;28;19989;-63
2023/10/10 06:23:11;;;;;;;;;;;;;;;13.63;69.44;98503.22;5108316;27;20441;-63
2023/10/10 06:25:59;;;;;;;;;;;;;;;13.68;69.42;98504.19;5102884;27;19928;-63
2023/10/10 06:28:47;;;;;;;;;;;;;;;13.70;69.29;98512.88;5098999;28;20049;-63
2023/10/10 06:31:36;;;;;;;;;;;;;;;13.70;69.27;98508.22;5111976;27;19955;-62
2023/10/10 06:34:34;;;;;;;;;;;;;;;13.70;69.18;98507.41;5107848;27;19924;-63
2023/10/10 06:37:26;;;;;;;;;;;;;;;13.73;69.37;98504.84;5111384;27;19923;-63
2023/10/10 06:40:24;;;;;;;;;;;;;;;13.71;69.12;98498.91;5108093;27;19932;-63
2023/10/10 06:43:15;;;;;;;;;;;;;;;13.75;69.32;98505.34;5107184;27;20016;-63
2023/10/10 06:46:03;;;;;;;;;;;;;;;13.79;69.37;98503.56;5110974;27;19928;-63
2023/10/10 06:49:04;;;;;;;;;;;;;;;13.80;69.09;98504.38;5101936;27;19924;-63
2023/10/10 06:51:59;;;;;;;;;;;;;;;13.81;69.32;98503.25;5107925;28;19971;-62
2023/10/10 06:54:53;;;;;;;;;;;;;;;13.82;69.57;98504.88;5107944;27;19958;-62
2023/10/10 06:57:44;;;;;;;;;;;;;;;13.85;69.43;98509.69;5110847;27;19927;-63
2023/10/10 07:00:42;;;;;;;;;;;;;;;13.90;69.45;98512.25;5101220;27;19924;-62
2023/10/10 07:03:39;;;;;;;;;;;;;;;13.94;69.70;98510.50;5105150;27;19928;-63
2023/10/10 07:06:29;;;;;;;;;;;;;;;14.00;69.66;98517.41;5097310;28;19928;-63
2023/10/10 07:09:27;;;;;;;;;;;;;;;14.04;69.62;98521.13;5105846;27;20399;-63
2023/10/10 07:12:16;;;;;;;;;;;;;;;14.10;69.90;98525.31;5090183;28;20020;-64
2023/10/10 07:15:07;;;;;;;;;;;;;;;14.18;69.35;98525.66;5091099;28;21675;-64
2023/10/10 07:18:08;;;;;;;;;;;;;;;14.23;69.46;98525.50;5107820;27;20386;-63
2023/10/10 07:24:13;;;;;;;;;;;;;;;14.31;69.34;98527.44;5102162;27;20004;-63
2023/10/10 07:27:11;;;;;;;;;;;;;;;14.33;69.72;98525.19;5097296;27;20274;-64
2023/10/10 07:29:59;;;;;;;;;;;;;;;14.38;69.82;98539.50;5107743;27;19928;-63
2023/10/10 07:32:48;;;;;;;;;;;;;;;14.43;69.51;98541.25;5110037;27;20284;-63
2023/10/10 07:35:43;;;;;;;;;;;;;;;14.48;69.60;98538.41;5109050;27;19927;-63
2023/10/10 07:38:35;;;;;;;;;;;;;;;14.52;69.43;98542.09;5106050;27;20021;-63
2023/10/10 07:41:27;;;;;;;;;;;;;;;14.56;69.45;98540.34;5102723;28;19968;-63
2023/10/10 07:44:22;;;;;;;;;;;;;;;14.59;69.60;98545.16;5106810;28;19938;-63
2023/10/10 07:47:26;;;;;;;;;;;;;;;14.63;69.68;98546.13;5108089;27;19928;-63
2023/10/10 07:50:18;;;;;;;;;;;;;;;14.68;69.55;98551.44;5113182;27;19923;-64
2023/10/10 07:53:06;;;;;;;;;;;;;;;14.68;69.89;98551.44;5097647;28;19923;-63
2023/10/10 07:56:00;;;;;;;;;;;;;;;14.70;69.84;98545.66;5105000;27;19928;-63
2023/10/10 07:58:50;;;;;;;;;;;;;;;14.78;69.92;98541.28;5103892;27;20416;-63
2023/10/10 08:01:42;;;;;;;;;;;;;;;14.86;70.03;98545.94;5115409;27;19923;-62
2023/10/10 08:04:30;;;;;;;;;;;;;;;14.95;69.68;98546.75;5099105;27;19934;-62
2023/10/10 08:07:19;;;;;;;;;;;;;;;15.01;69.39;98547.38;5118350;27;20454;-62
2023/10/10 08:10:14;;;;;;;;;;;;;;;15.03;69.20;98543.19;5114919;27;19923;-62
2023/10/10 08:13:09;;;;;;;;;;;;;;;15.06;69.03;98541.72;5109561;27;19924;-64
2023/10/10 08:16:02;;;;;;;;;;;;;;;15.12;69.05;98543.97;5105494;27;19943;-64
2023/10/10 08:18:53;;;;;;;;;;;;;;;15.20;69.07;98532.19;5102422;27;19924;-65
2023/10/10 08:21:48;;;;;;;;;;;;;;;15.29;69.27;98539.59;5095197;28;20273;-65
2023/10/10 08:24:39;;;;;;;;;;;;;;;15.36;69.32;98543.44;5097868;28;19924;-64
2023/10/10 08:27:33;;;;;;;;;;;;;;;15.42;69.56;98544.06;5097435;28;19978;-64
2023/10/10 08:30:25;;;;;;;;;;;;;;;15.47;69.40;98541.13;5107813;28;19927;-64
2023/10/10 08:33:13;;;;;;;;;;;;;;;15.50;68.84;98547.88;5102887;28;19938;-64
2023/10/10 08:36:03;;;;;;;;;;;;;;;15.54;68.69;98546.91;5099255;28;19939;-65
2023/10/10 08:38:51;;;;;;;;;;;;;;;15.60;68.29;98550.25;5092989;28;20031;-65
2023/10/10 08:41:39;;;;;;;;;;;;;;;15.66;67.91;98538.84;5095838;28;19932;-65
2023/10/10 08:44:29;;;;;;;;;;;;;;;15.67;66.61;98540.44;5096758;28;20042;-64
2023/10/10 08:47:22;;;;;;;;;;;;;;;15.68;66.75;98522.88;5095649;28;19949;-63
2023/10/10 08:50:10;;;;;;;;;;;;;;;15.83;66.61;98537.16;5103338;28;19931;-63
2023/10/10 08:53:00;;;;;;;;;;;;;;;15.91;66.70;98539.81;5103319;28;19932;-63
2023/10/10 08:55:56;;;;;;;;;;;;;;;15.98;66.59;98540.13;5099022;28;19947;-62
2023/10/10 08:58:46;;;;;;;;;;;;;;;16.09;67.07;98537.81;5104090;28;20006;-63
2023/10/10 09:01:35;;;;;;;;;;;;;;;16.14;67.02;98540.34;5102191;28;19931;-63
2023/10/10 09:04:30;;;;;;;;;;;;;;;16.18;66.77;98535.78;5111934;28;19933;-63
2023/10/10 09:07:21;;;;;;;;;;;;;;;16.26;66.80;98541.56;5104040;28;19927;-63
2023/10/10 09:10:14;;;;;;;;;;;;;;;16.32;66.78;98532.81;5101490;28;19924;-63
2023/10/10 09:13:04;;;;;;;;;;;;;;;16.38;67.08;98538.88;5109956;28;20502;-64
2023/10/10 09:15:54;;;;;;;;;;;;;;;16.42;66.63;98539.84;5110709;28;19966;-63
2023/10/10 09:18:42;;;;;;;;;;;;;;;16.48;66.92;98539.28;5110225;28;19928;-63
2023/10/10 09:21:30;;;;;;;;;;;;;;;16.54;66.75;98534.41;5103181;28;19928;-63
2023/10/10 09:24:28;;;;;;;;;;;;;;;16.60;67.07;98535.81;5099873;28;19934;-64
2023/10/10 09:27:23;;;;;;;;;;;;;;;16.65;67.43;98534.81;5102462;28;21299;-63
2023/10/10 09:30:15;;;;;;;;;;;;;;;16.69;67.29;98524.75;5105960;28;19989;-63
2023/10/10 09:33:13;;;;;;;;;;;;;;;16.76;67.04;98525.84;5108472;27;19938;-64
2023/10/10 09:36:09;;;;;;;;;;;;;;;16.81;66.72;98524.03;5120728;27;19946;-63
2023/10/10 09:39:08;;;;;;;;;;;;;;;16.87;66.57;98526.22;5100969;28;19973;-63
2023/10/10 09:42:06;;;;;;;;;;;;;;;16.94;65.85;98529.25;5109098;27;19939;-63
2023/10/10 09:48:06;;;;;;;;;;;;;;;17.06;64.93;98530.41;5107426;27;19932;-63
2023/10/10 09:51:08;;;;;;;;;;;;;;;17.11;64.58;98533.75;5112021;27;20464;-63
2023/10/10 09:54:07;;;;;;;;;;;;;;;17.12;64.09;98521.63;5107859;27;19967;-63
2023/10/10 09:56:56;;;;;;;;;;;;;;;17.19;64.39;98523.81;5102635;27;20368;-63
2023/10/10 09:59:44;;;;;;;;;;;;;;;17.25;63.82;98526.00;5107449;27;19927;-63
2023/10/10 10:02:43;;;;;;;;;;;;;;;17.32;62.71;98522.69;5103521;27;19935;-63
2023/10/10 10:05:31;;;;;;;;;;;;;;;17.38;61.43;98523.28;5058267;28;19967;-63
2023/10/10 10:08:22;;;;;;;;;;;;;;;17.42;61.59;98522.25;5066396;28;20409;-62
2023/10/10 10:11:11;;;;;;;;;;;;;;;17.49;60.83;98514.25;5065708;28;20294;-65
2023/10/10 10:14:11;;;;;;;;;;;;;;;17.53;61.63;98525.38;5061340;28;19931;-65
2023/10/10 10:17:12;;;;;;;;;;;;;;;17.60;61.47;98525.59;5070820;28;20370;-65
2023/10/10 10:20:19;;;;;;;;;;;;;;;17.66;61.12;98529.72;5070270;28;19936;-64
2023/10/10 10:23:12;;;;;;;;;;;;;;;17.71;61.37;98525.94;5058246;28;20768;-64
2023/10/10 10:26:08;;;;;;;;;;;;;;;17.75;61.20;98530.44;5061121;28;19933;-65
2023/10/10 10:29:00;;;;;;;;;;;;;;;17.77;60.69;98519.91;5058723;28;19928;-65
2023/10/10 10:31:51;;;;;;;;;;;;;;;17.81;60.77;98520.03;5061559;28;19932;-65
2023/10/10 10:34:45;;;;;;;;;;;;;;;17.84;61.08;98529.50;5061364;28;20054;-65
2023/10/10 10:37:38;;;;;;;;;;;;;;;17.89;61.19;98521.03;5059389;28;20454;-63
2023/10/10 10:40:41;;;;;;;;;;;;;;;17.96;60.69;98524.03;5057691;28;19929;-64
2023/10/10 10:43:34;;;;;;;;;;;;;;;18.03;59.63;98524.25;5053060;28;19925;-65
2023/10/10 10:46:27;;;;;;;;;;;;;;;18.10;59.96;98513.44;5072363;28;19924;-64
2023/10/10 10:49:22;;;;;;;;;;;;;;;18.15;58.91;98512.41;5060992;28;19943;-64
2023/10/10 10:52:19;;;;;;;;;;;;;;;18.21;59.38;98513.78;5059941;28;19932;-64
2023/10/10 10:55:21;;;;;;;;;;;;;;;18.25;58.34;98507.25;5055488;28;19929;-64
2023/10/10 10:58:20;;;;;;;;;;;;;;;18.32;57.93;98501.97;5060375;28;19928;-64
2023/10/10 11:01:10;;;;;;;;;;;;;;;18.40;59.19;98496.66;5057588;28;20072;-64
2023/10/10 11:04:05;;;;;;;;;;;;;;;18.48;58.17;98498.47;5086962;27;19924;-64
2023/10/10 11:07:03;;;;;;;;;;;;;;;18.53;57.22;98498.22;5115245;27;19931;-64
2023/10/10 11:09:54;;;;;;;;;;;;;;;18.56;56.40;98495.56;5111661;27;19923;-64
2023/10/10 11:12:44;;;;;;;;;;;;;;;18.60;56.57;98492.94;5110488;27;20436;-64
2023/10/10 11:15:37;;;;;;;;;;;;;;;18.66;57.39;98482.47;5112305;27;20400;-64
2023/10/10 11:18:34;;;;;;;;;;;;;;;18.74;57.51;98476.81;5105947;27;19931;-64
2023/10/10 11:21:27;;;;;;;;;;;;;;;18.77;56.52;98467.09;5099011;28;19928;-64
2023/10/10 11:24:23;;;;;;;;;;;;;;;18.82;55.63;98464.88;5109094;28;19946;-64
2023/10/10 11:27:21;;;;;;;;;;;;;;;18.88;55.42;98465.41;5109516;28;19930;-64
2023/10/10 11:30:12;;;;;;;;;;;;;;;18.95;54.60;98462.03;5096317;27;19992;-64
2023/10/10 11:36:17;;;;;;;;;;;;;;;18.99;55.10;98449.97;5104855;28;19924;-64
2023/10/10 11:39:22;;;;;;;;;;;;;;;19.08;53.81;98452.56;5102602;28;20327;-64
2023/10/10 11:42:13;;;;;;;;;;;;;;;19.05;54.33;98448.56;5102957;27;19931;-64
2023/10/10 11:45:03;;;;;;;;;;;;;;;19.05;53.37;98445.81;5104232;28;20460;-64
2023/10/10 11:47:53;;;;;;;;;;;;;;;19.09;53.25;98435.69;5100228;28;19923;-64
2023/10/10 11:50:43;;;;;;;;;;;;;;;19.16;54.07;98432.31;5102725;28;19968;-64
2023/10/10 11:53:36;;;;;;;;;;;;;;;19.20;54.34;98435.16;5102569;28;20298;-65
2023/10/10 11:56:25;;;;;;;;;;;;;;;19.23;54.87;98435.25;5099190;28;19968;-64
2023/10/10 11:59:14;;;;;;;;;;;;;;;19.29;52.21;98433.03;5102104;28;20444;-64
2023/10/10 12:02:13;;;;;;;;;;;;;;;19.38;53.36;98431.66;5101362;28;19999;-64
2023/10/10 12:05:14;;;;;;;;;;;;;;;19.43;53.03;98429.81;5102859;27;20400;-64
2023/10/10 12:08:05;;;;;;;;;;;;;;;19.46;50.78;98426.34;5099759;27;19930;-64
2023/10/10 12:11:02;;;;;;;;;;;;;;;19.46;50.33;98427.16;5097724;28;19932;-64
2023/10/10 12:13:51;;;;;;;;;;;;;;;19.53;49.29;98426.50;5107115;27;19928;-64
2023/10/10 12:16:39;;;;;;;;;;;;;;;19.51;49.86;98417.81;5097192;28;20602;-64
2023/10/10 12:19:29;;;;;;;;;;;;;;;19.53;50.16;98421.00;5096665;28;20019;-65
2023/10/10 12:22:18;;;;;;;;;;;;;;;19.58;49.87;98417.97;5102803;27;19943;-64
2023/10/10 12:25:13;;;;;;;;;;;;;;;19.61;49.64;98414.53;5104562;28;19935;-64
2023/10/10 12:28:03;;;;;;;;;;;;;;;19.60;50.31;98412.91;5103254;28;20277;-64
2023/10/10 12:30:51;;;;;;;;;;;;;;;19.65;50.67;98407.13;5110681;28;20058;-65
2023/10/10 12:33:39;;;;;;;;;;;;;;;19.69;50.08;98402.50;5109060;28;19924;-64
2023/10/10 12:36:30;;;;;;;;;;;;;;;19.76;49.76;98399.94;5099893;28;19931;-65
2023/10/10 12:39:19;;;;;;;;;;;;;;;19.80;49.18;98398.03;5099426;28;20060;-64
2023/10/10 12:42:07;;;;;;;;;;;;;;;19.82;49.65;98389.41;5101617;28;19924;-65
2023/10/10 12:44:56;;;;;;;;;;;;;;;19.83;50.56;98394.56;5107923;28;20288;-64
2023/10/10 12:47:44;;;;;;;;;;;;;;;19.86;50.16;98388.31;5096622;28;19932;-65
2023/10/10 12:50:32;;;;;;;;;;;;;;;19.86;50.19;98388.31;5105070;28;20392;-64
2023/10/10 12:53:21;;;;;;;;;;;;;;;19.89;50.23;98384.03;5106866;28;19947;-65
2023/10/10 12:56:16;;;;;;;;;;;;;;;19.90;50.51;98380.13;5097586;28;19935;-65
2023/10/10 12:59:07;;;;;;;;;;;;;;;19.92;51.01;98371.47;5091743;28;19928;-64
2023/10/10 13:02:15;;;;;;;;;;;;;;;19.87;50.88;98378.09;5102418;28;19930;-64
2023/10/10 13:05:07;;;;;;;;;;;;;;;19.88;50.71;98365.91;5103317;28;19924;-65
2023/10/10 13:07:58;;;;;;;;;;;;;;;19.97;51.28;98366.47;5105291;28;19963;-64
2023/10/10 13:10:54;;;;;;;;;;;;;;;20.01;50.63;98372.06;5103717;28;20295;-64
2023/10/10 13:13:48;;;;;;;;;;;;;;;19.99;51.13;98364.16;5100402;28;19924;-64
2023/10/10 13:16:52;;;;;;;;;;;;;;;19.96;50.37;98361.31;5107105;28;19931;-64
2023/10/10 13:19:41;;;;;;;;;;;;;;;19.98;50.88;98364.53;5108726;28;19932;-64
2023/10/10 13:22:29;;;;;;;;;;;;;;;19.94;50.48;98363.66;5103468;28;19948;-64
2023/10/10 13:25:19;;;;;;;;;;;;;;;19.92;50.79;98361.28;5101773;28;20274;-64
2023/10/10 13:28:09;;;;;;;;;;;;;;;19.99;50.81;98368.88;5110518;28;20162;-64
2023/10/10 13:31:02;;;;;;;;;;;;;;;20.06;50.12;98363.50;5106822;28;20010;-64
2023/10/10 13:33:50;;;;;;;;;;;;;;;20.14;48.35;98357.00;5108367;28;19928;-65
2023/10/10 13:36:38;;;;;;;;;;;;;;;20.23;49.25;98362.25;5116669;27;20022;-64
2023/10/10 13:39:43;;;;;;;;;;;;;;;20.21;49.67;98368.16;5117585;27;20298;-64
2023/10/10 13:42:32;;;;;;;;;;;;;;;20.22;49.58;98367.00;5107614;28;19969;-65
2023/10/10 13:45:26;;;;;;;;;;;;;;;20.13;50.32;98355.38;5108539;28;19924;-64
2023/10/10 13:48:18;;;;;;;;;;;;;;;20.15;49.98;98364.09;5100189;28;20044;-64
2023/10/10 13:51:07;;;;;;;;;;;;;;;20.25;49.14;98358.00;5107875;28;20474;-64
2023/10/10 13:53:56;;;;;;;;;;;;;;;20.28;49.92;98357.25;5109777;28;19923;-64
2023/10/10 13:56:45;;;;;;;;;;;;;;;20.27;49.76;98355.66;5103010;28;20034;-65
2023/10/10 13:59:32;;;;;;;;;;;;;;;20.31;49.71;98356.53;5096776;27;19924;-64
2023/10/10 14:02:25;;;;;;;;;;;;;;;20.34;49.81;98355.78;5096716;28;20320;-65
2023/10/10 14:05:19;;;;;;;;;;;;;;;20.36;49.93;98347.97;5089314;28;19924;-65
2023/10/10 14:08:09;;;;;;;;;;;;;;;20.37;49.83;98348.75;5077468;28;19946;-64
2023/10/10 14:10:59;;;;;;;;;;;;;;;20.37;49.42;98340.47;5087796;28;20062;-64
2023/10/10 14:13:47;;;;;;;;;;;;;;;20.38;48.93;98342.06;5089953;28;19981;-65
2023/10/10 14:16:35;;;;;;;;;;;;;;;20.45;48.58;98341.41;5080480;28;20400;-65
2023/10/10 14:19:25;;;;;;;;;;;;;;;20.52;47.86;98336.06;5089020;28;19932;-65
2023/10/10 14:22:22;;;;;;;;;;;;;;;20.53;47.88;98341.19;5085336;28;19924;-64
2023/10/10 14:25:13;;;;;;;;;;;;;;;20.58;48.02;98340.09;5069940;28;19925;-65
2023/10/10 14:28:01;;;;;;;;;;;;;;;20.59;48.07;98339.72;5087062;28;19938;-65
2023/10/10 14:30:50;;;;;;;;;;;;;;;20.60;48.29;98340.53;5089582;28;19928;-65
2023/10/10 14:33:39;;;;;;;;;;;;;;;20.63;47.14;98335.06;5087926;28;19924;-64
2023/10/10 14:36:28;;;;;;;;;;;;;;;20.64;47.59;98335.88;5089679;28;19924;-65
2023/10/10 14:39:29;;;;;;;;;;;;;;;20.62;48.17;98336.25;5087019;28;19978;-64
2023/10/10 14:42:19;;;;;;;;;;;;;;;20.57;47.76;98339.31;5083036;28;19980;-64
2023/10/10 14:45:12;;;;;;;;;;;;;;;20.54;46.91;98339.22;5087121;28;19939;-64
2023/10/10 14:48:04;;;;;;;;;;;;;;;20.51;46.25;98331.72;5083116;28;19932;-64
2023/10/10 14:50:53;;;;;;;;;;;;;;;20.55;44.82;98333.34;5085001;28;19968;-65
2023/10/10 14:53:41;;;;;;;;;;;;;;;20.64;43.35;98333.09;5085863;28;20432;-65
2023/10/10 14:56:35;;;;;;;;;;;;;;;20.70;43.42;98325.31;5086484;28;19924;-64
2023/10/10 14:59:25;;;;;;;;;;;;;;;20.71;44.48;98327.69;5081714;28;19963;-64
2023/10/10 15:02:16;;;;;;;;;;;;;;;20.71;43.98;98330.47;5088597;28;19955;-64
2023/10/10 15:05:09;;;;;;;;;;;;;;;20.65;44.35;98327.22;5109113;27;19928;-65
2023/10/10 15:07:57;;;;;;;;;;;;;;;20.62;43.76;98333.50;5109046;28;19923;-64
2023/10/10 15:10:45;;;;;;;;;;;;;;;20.64;43.65;98333.09;5094015;28;20313;-64
2023/10/10 15:13:40;;;;;;;;;;;;;;;20.60;43.98;98330.28;5086474;28;19923;-64
2023/10/10 15:16:34;;;;;;;;;;;;;;;20.59;43.21;98325.13;5104640;28;19923;-64
2023/10/10 15:19:24;;;;;;;;;;;;;;;20.59;43.26;98327.91;5098456;28;20339;-67
2023/10/10 15:22:16;;;;;;;;;;;;;;;20.55;43.81;98332.53;5100979;28;19924;-65
2023/10/10 15:25:04;;;;;;;;;;;;;;;20.56;43.75;98334.13;5098763;28;19928;-65
2023/10/10 15:27:54;;;;;;;;;;;;;;;20.59;42.87;98336.19;5103044;28;19924;-65
2023/10/10 15:30:44;;;;;;;;;;;;;;;20.57;42.77;98335.75;5099737;27;20603;-65
2023/10/10 15:33:32;;;;;;;;;;;;;;;20.60;42.75;98335.00;5105469;28;20266;-64
2023/10/10 15:36:20;;;;;;;;;;;;;;;20.59;43.00;98333.41;5093298;27;20680;-65
2023/10/10 15:39:09;;;;;;;;;;;;;;;20.58;43.75;98340.09;5104645;28;19924;-64
2023/10/10 15:42:00;;;;;;;;;;;;;;;20.58;43.54;98338.13;5109324;27;19966;-64
2023/10/10 15:44:48;;;;;;;;;;;;;;;20.58;44.90;98337.34;5103790;28;20056;-63
2023/10/10 15:47:38;;;;;;;;;;;;;;;20.58;44.08;98343.66;5100186;28;20196;-63
2023/10/10 15:50:26;;;;;;;;;;;;;;;20.59;44.99;98341.69;5094596;28;19931;-64
2023/10/10 15:53:14;;;;;;;;;;;;;;;20.58;44.88;98337.34;5104279;27;20010;-63
2023/10/10 15:56:09;;;;;;;;;;;;;;;20.58;45.47;98345.63;5103496;27;20046;-63
2023/10/10 15:58:58;;;;;;;;;;;;;;;20.56;43.77;98345.19;5113122;27;19924;-65
2023/10/10 16:01:48;;;;;;;;;;;;;;;20.53;44.14;98345.94;5119032;27;20298;-64
2023/10/10 16:04:42;;;;;;;;;;;;;;;20.53;44.43;98351.44;5105421;28;20292;-63
2023/10/10 16:07:30;;;;;;;;;;;;;;;20.56;44.00;98350.69;5107613;28;19924;-63
2023/10/10 16:10:18;;;;;;;;;;;;;;;20.53;45.67;98345.94;5104614;28;20398;-64
2023/10/10 16:13:07;;;;;;;;;;;;;;;20.52;45.13;98358.13;5096810;27;20369;-64
2023/10/10 16:15:57;;;;;;;;;;;;;;;20.47;45.04;98362.00;5104018;28;19935;-64
2023/10/10 16:18:46;;;;;;;;;;;;;;;20.39;45.18;98361.00;5102902;28;19924;-64
2023/10/10 16:21:38;;;;;;;;;;;;;;;20.36;45.30;98360.97;5097326;28;20621;-63
2023/10/10 16:24:27;;;;;;;;;;;;;;;20.34;45.91;98360.50;5096944;28;19923;-64
2023/10/10 16:27:15;;;;;;;;;;;;;;;20.28;45.65;98368.28;5107044;28;20266;-64
2023/10/10 16:30:05;;;;;;;;;;;;;;;20.25;45.59;98362.72;5109838;28;19927;-63
2023/10/10 16:32:54;;;;;;;;;;;;;;;20.20;46.17;98361.03;5109066;28;20522;-63
2023/10/10 16:35:46;;;;;;;;;;;;;;;20.15;46.19;98353.84;5097001;28;20627;-63
2023/10/10 16:38:36;;;;;;;;;;;;;;;20.10;46.21;98356.91;5107887;28;19928;-63
2023/10/10 16:41:24;;;;;;;;;;;;;;;20.05;45.83;98359.16;5096925;28;20407;-63
2023/10/10 16:44:14;;;;;;;;;;;;;;;20.00;45.88;98353.94;5104159;27;19924;-63
2023/10/10 16:47:02;;;;;;;;;;;;;;;19.95;46.10;98368.00;5108715;28;19924;-63